This is the latest recevied weather packets stored in our database for station/object SR6WXJG. If no packets are shown the sender has not sent any weather packets the latest 1 day(s).
| Time | Temp. | Humidity | Pressure | Rain* | Wind** | Luminosity | Snow |
|---|---|---|---|---|---|---|---|
| 1778003453 | 19.44° C | 69% | 1004 hPa | 0 mm | 6.26 m/s, 252° | - | - |
| 1778002553 | 20° C | 67% | 1004 hPa | 0.51 mm | 6.26 m/s, 252° | - | - |
| 1778001652 | 21.11° C | 54% | 1004 hPa | 0.51 mm | 1.79 m/s, 126° | - | - |
| 1778000752 | 21.11° C | 54% | 1004 hPa | 0.25 mm | 1.79 m/s, 126° | - | - |
| 1777999852 | 21.11° C | 60% | 1003 hPa | 0.51 mm | 1.79 m/s, 126° | - | - |
| 1777998951 | 21.67° C | 58% | 1003 hPa | 0.76 mm | 1.79 m/s, 126° | - | - |
| 1777998051 | 22.78° C | 46% | 1005 hPa | 1.52 mm | 2.24 m/s, 70° | - | - |
| 1777997151 | 22.78° C | 46% | 1005 hPa | 2.03 mm | 2.24 m/s, 70° | - | - |
| 1777996250 | 22.78° C | 51% | 1004 hPa | 0 mm | 2.24 m/s, 70° | - | - |
| 1777995350 | 22.78° C | 51% | 1004 hPa | 0 mm | 2.24 m/s, 70° | - | - |
| 1777994449 | 23.89° C | 43% | 1005 hPa | 0 mm | 3.13 m/s, 39° | - | - |
| 1777993549 | 23.89° C | 42% | 1005 hPa | 0 mm | 3.13 m/s, 39° | - | - |
| 1777992648 | 23.33° C | 46% | 1004 hPa | 0 mm | 3.13 m/s, 39° | - | - |
| 1777991748 | 23.33° C | 46% | 1004 hPa | 0 mm | 3.13 m/s, 39° | - | - |
| 1777990848 | 23.89° C | 42% | 1005 hPa | 0 mm | 2.68 m/s, 12° | - | - |
| 1777989947 | 23.89° C | 42% | 1006 hPa | 0 mm | 2.68 m/s, 12° | - | - |
| 1777989047 | 23.89° C | 45% | 1005 hPa | 0 mm | 2.68 m/s, 12° | - | - |
| 1777988147 | 23.89° C | 45% | 1005 hPa | 0 mm | 2.68 m/s, 12° | - | - |
| 1777987246 | 24.44° C | 42% | 1006 hPa | 0 mm | 1.79 m/s, 18° | - | - |
| 1777986346 | 23.89° C | 45% | 1006 hPa | 0 mm | 1.79 m/s, 18° | - | - |
| 1777985446 | 23.89° C | 45% | 1006 hPa | 0 mm | 1.79 m/s, 18° | - | - |
| 1777984545 | 23.89° C | 45% | 1006 hPa | 0 mm | 2.24 m/s, 38° | - | - |
| 1777983645 | 23.89° C | 43% | 1007 hPa | 0 mm | 2.24 m/s, 56° | - | - |
| 1777982745 | 23.33° C | 44% | 1007 hPa | 0 mm | 2.24 m/s, 56° | - | - |
| 1777981844 | 23.33° C | 46% | 1006 hPa | 0 mm | 2.24 m/s, 56° | - | - |
* Rain latest hour (hover to see other rain measurements)
** Current wind speed in m/s (hover to see current wind gust speed)